createdAt,value
2019-05-10T00:05:04.883Z,73.10
2019-05-10T00:10:06.982Z,72.80
2019-05-10T00:15:09.731Z,72.90
2019-05-10T00:20:12.433Z,73.00
2019-05-10T00:25:15.029Z,73.30
2019-05-10T00:30:17.612Z,73.50
2019-05-10T00:35:20.158Z,73.90
2019-05-10T00:40:22.753Z,74.40
2019-05-10T00:45:25.549Z,74.60
2019-05-10T00:50:28.214Z,74.60
2019-05-10T00:55:30.768Z,75.10
2019-05-10T01:00:33.356Z,75.60
2019-05-10T01:05:35.927Z,75.80
2019-05-10T01:10:38.513Z,75.90
2019-05-10T01:15:46.842Z,75.90
2019-05-10T01:20:46.600Z,75.70
2019-05-10T01:25:49.179Z,75.00
2019-05-10T01:30:51.736Z,74.30
2019-05-10T01:35:54.385Z,74.50
2019-05-10T01:40:56.976Z,74.40
2019-05-10T01:45:59.618Z,74.70
2019-05-10T01:51:02.351Z,74.80
2019-05-10T01:56:04.884Z,75.00
2019-05-10T02:01:07.477Z,75.30
2019-05-10T02:06:10.077Z,75.00
2019-05-10T02:11:12.601Z,75.10
2019-05-10T02:16:15.193Z,75.10
2019-05-10T02:21:17.773Z,75.00
2019-05-10T02:26:20.321Z,74.90
2019-05-10T02:31:22.957Z,75.00
2019-05-10T02:36:25.496Z,74.80
2019-05-10T02:41:28.142Z,74.60
2019-05-10T02:46:30.770Z,74.80
2019-05-10T02:51:33.297Z,75.30
2019-05-10T02:56:36.340Z,75.30
2019-05-10T03:01:39.022Z,75.10
2019-05-10T03:06:41.887Z,74.90
2019-05-10T03:11:46.390Z,75.40
2019-05-10T03:16:50.651Z,75.50
2019-05-10T03:22:01.766Z,75.50
2019-05-10T03:27:04.309Z,75.50
2019-05-10T03:32:06.946Z,75.80
2019-05-10T03:37:09.506Z,75.90
2019-05-10T03:42:12.070Z,75.90
2019-05-10T03:47:15.063Z,76.30
2019-05-10T03:52:17.661Z,76.60
2019-05-10T03:57:20.227Z,76.90
2019-05-10T04:02:22.771Z,77.00
2019-05-10T04:07:25.469Z,77.40
2019-05-10T04:12:28.354Z,76.90
2019-05-10T04:17:30.856Z,76.30
2019-05-10T04:22:33.439Z,76.30
2019-05-10T04:27:36.023Z,76.10
2019-05-10T04:32:38.578Z,75.30
2019-05-10T04:37:41.101Z,76.00
2019-05-10T04:42:43.620Z,75.30
2019-05-10T04:47:46.215Z,75.50
2019-05-10T04:52:48.799Z,75.70
2019-05-10T04:57:51.525Z,75.50
2019-05-10T05:02:53.930Z,76.00
2019-05-10T05:07:56.468Z,76.00
2019-05-10T05:12:59.043Z,76.20
2019-05-10T05:18:01.593Z,76.30
2019-05-10T05:23:04.235Z,75.50
2019-05-10T05:28:08.414Z,76.30
2019-05-10T05:33:09.377Z,76.40
2019-05-10T05:38:11.961Z,76.50
2019-05-10T05:43:14.440Z,75.90
2019-05-10T05:48:21.285Z,75.40
2019-05-10T05:53:22.415Z,75.70
2019-05-10T05:58:27.070Z,75.30
2019-05-10T06:03:29.516Z,74.60
2019-05-10T06:08:30.064Z,74.30
2019-05-10T06:13:30.749Z,73.60
2019-05-10T06:18:32.519Z,74.00
2019-05-10T06:23:35.487Z,74.40
2019-05-10T06:28:57.320Z,73.50
2019-05-10T06:33:45.067Z,73.40
2019-05-10T06:38:42.843Z,73.50
2019-05-10T06:43:50.572Z,73.10
2019-05-10T06:48:48.031Z,73.00
2019-05-10T06:53:53.658Z,73.10
2019-05-10T06:58:53.110Z,72.40
2019-05-10T07:03:55.683Z,70.40
2019-05-10T07:08:59.520Z,68.20
2019-05-10T07:14:00.965Z,67.00
2019-05-10T07:19:03.629Z,66.60
2019-05-10T07:24:06.211Z,65.60
2019-05-10T07:29:08.876Z,65.50
2019-05-10T07:34:15.738Z,64.90
2019-05-10T07:39:14.130Z,65.40
2019-05-10T07:44:18.247Z,64.80
2019-05-10T07:49:23.829Z,64.80
2019-05-10T07:54:23.501Z,63.70
2019-05-10T07:59:30.375Z,63.20
2019-05-10T08:04:33.403Z,62.60
2019-05-10T08:09:31.803Z,62.30
2019-05-10T08:14:33.751Z,60.40
2019-05-10T08:19:37.689Z,60.70
2019-05-10T08:24:44.546Z,60.40
2019-05-10T08:29:42.921Z,61.10
2019-05-10T08:34:51.671Z,60.30
2019-05-10T08:39:49.445Z,60.90
2019-05-10T08:44:54.107Z,57.80
2019-05-10T08:50:09.495Z,57.70
2019-05-10T08:54:55.267Z,59.10
2019-05-10T09:00:06.608Z,56.50
2019-05-10T09:05:02.413Z,56.60
2019-05-10T09:10:02.481Z,56.20
2019-05-10T09:15:09.886Z,55.70
2019-05-10T09:20:14.016Z,55.80
2019-05-10T09:25:12.919Z,55.60
2019-05-10T09:30:18.611Z,57.80
2019-05-10T09:35:22.033Z,59.30
2019-05-10T09:40:22.153Z,60.50
2019-05-10T09:45:24.862Z,59.50
2019-05-10T09:50:30.594Z,59.00
2019-05-10T09:55:30.110Z,57.10
2019-05-10T10:00:33.267Z,55.60
2019-05-10T10:05:39.766Z,55.30
2019-05-10T10:10:38.773Z,55.50
2019-05-10T10:15:41.519Z,55.80
2019-05-10T10:20:45.400Z,55.80
2019-05-10T10:25:48.414Z,55.60
2019-05-10T10:30:58.294Z,56.30
2019-05-10T10:35:56.203Z,55.80
2019-05-10T10:40:54.427Z,55.30
2019-05-10T10:45:57.559Z,54.60
2019-05-10T10:50:59.719Z,53.60
2019-05-10T10:56:03.898Z,52.90
2019-05-10T11:01:10.723Z,52.00
2019-05-10T11:06:07.527Z,52.00
2019-05-10T11:11:10.657Z,51.50
2019-05-10T11:16:15.782Z,50.00
2019-05-10T11:21:15.497Z,47.80
2019-05-10T11:26:18.035Z,46.30
2019-05-10T11:31:21.366Z,46.30
2019-05-10T11:36:23.214Z,46.90
2019-05-10T11:41:25.792Z,48.10
2019-05-10T11:46:30.885Z,48.50
2019-05-10T11:51:31.698Z,48.50
2019-05-10T11:56:33.672Z,46.90
2019-05-10T12:01:41.524Z,46.90
2019-05-10T12:06:41.127Z,46.00
2019-05-10T12:11:51.832Z,46.50
2019-05-10T12:16:44.197Z,47.00
2019-05-10T12:21:46.821Z,46.10
2019-05-10T12:31:55.103Z,45.70
2019-05-10T12:36:57.448Z,47.50
2019-05-10T12:41:57.385Z,48.20
2019-05-10T12:47:01.263Z,51.60
2019-05-10T12:52:03.364Z,54.60
2019-05-10T12:57:05.111Z,56.00
2019-05-10T13:02:11.190Z,56.50
2019-05-10T13:07:10.281Z,55.90
2019-05-10T13:12:12.861Z,55.50
2019-05-10T13:17:17.120Z,54.00
2019-05-10T13:22:18.227Z,53.80
2019-05-10T13:27:20.814Z,53.00
2019-05-10T13:32:23.443Z,51.50
2019-05-10T13:37:26.013Z,50.80
2019-05-10T13:42:28.596Z,51.00
2019-05-10T13:47:31.169Z,49.40
2019-05-10T13:52:38.110Z,50.90
2019-05-10T13:57:36.291Z,50.80
2019-05-10T14:02:38.846Z,50.80
2019-05-10T14:07:50.525Z,50.10
2019-05-10T14:12:43.982Z,50.70
2019-05-10T14:17:47.065Z,54.80
2019-05-10T14:22:56.015Z,55.60
2019-05-10T14:27:52.193Z,56.40
2019-05-10T14:32:54.899Z,55.60
2019-05-10T14:38:07.517Z,54.20
2019-05-10T14:43:00.174Z,54.00
2019-05-10T14:48:03.065Z,54.00
2019-05-10T14:53:05.901Z,53.70
2019-05-10T14:58:08.546Z,53.20
2019-05-10T15:03:11.384Z,53.40
2019-05-10T15:08:14.066Z,55.30
2019-05-10T15:13:19.683Z,61.30
2019-05-10T15:18:20.029Z,62.50
2019-05-10T15:23:22.589Z,62.30
2019-05-10T15:28:25.285Z,62.60
2019-05-10T15:33:27.901Z,64.20
2019-05-10T15:38:30.549Z,66.80
2019-05-10T15:43:33.149Z,65.40
2019-05-10T15:48:36.700Z,63.60
2019-05-10T15:53:38.305Z,63.50
2019-05-10T15:58:42.588Z,60.60
2019-05-10T16:03:43.755Z,59.70
2019-05-10T16:08:46.396Z,59.50
2019-05-10T16:13:48.983Z,57.80
2019-05-10T16:18:51.574Z,57.60
2019-05-10T16:23:54.165Z,57.60
2019-05-10T16:29:02.108Z,57.90
2019-05-10T16:34:02.410Z,59.10
2019-05-10T16:39:06.890Z,59.20
2019-05-10T16:44:09.682Z,59.30
2019-05-10T16:49:15.599Z,58.20
2019-05-10T16:54:24.642Z,58.50
2019-05-10T16:59:19.005Z,58.30
2019-05-10T17:04:21.606Z,58.40
2019-05-10T17:09:24.160Z,57.70
2019-05-10T17:14:26.904Z,58.30
2019-05-10T17:19:33.902Z,58.30
2019-05-10T17:24:32.147Z,57.30
2019-05-10T17:29:35.009Z,57.70
2019-05-10T17:34:37.601Z,57.50
2019-05-10T17:39:40.245Z,58.00
2019-05-10T17:44:43.699Z,58.80
2019-05-10T17:49:45.808Z,59.40
2019-05-10T17:54:48.455Z,58.60
2019-05-10T17:59:52.887Z,60.10
2019-05-10T18:04:53.856Z,60.10
2019-05-10T18:09:56.522Z,61.20
2019-05-10T18:14:59.231Z,61.20
2019-05-10T18:20:03.968Z,60.50
2019-05-10T18:25:04.608Z,60.80
2019-05-10T18:30:07.330Z,61.10
2019-05-10T18:35:14.604Z,60.70
2019-05-10T18:40:12.973Z,61.30
2019-05-10T18:45:15.700Z,61.70
2019-05-10T18:50:18.363Z,63.90
2019-05-10T18:55:20.991Z,64.10
2019-05-10T19:00:25.251Z,64.00
2019-05-10T19:05:31.447Z,64.20
2019-05-10T19:10:29.523Z,64.30
2019-05-10T19:15:32.722Z,63.90
2019-05-10T19:20:35.323Z,66.40
2019-05-10T19:25:38.974Z,67.30
2019-05-10T19:30:41.659Z,67.30
2019-05-10T19:35:45.786Z,66.30
2019-05-10T19:40:50.125Z,66.00
2019-05-10T19:45:57.627Z,65.60
2019-05-10T19:50:55.549Z,65.20
2019-05-10T19:55:59.589Z,65.60
2019-05-10T20:01:02.216Z,65.80
2019-05-10T20:06:04.879Z,66.60
2019-05-10T20:11:08.181Z,66.80
2019-05-10T20:16:10.754Z,67.30
2019-05-10T20:21:13.302Z,67.30
2019-05-10T20:26:15.887Z,66.90
2019-05-10T20:31:18.785Z,67.00
2019-05-10T20:36:21.370Z,67.00
2019-05-10T20:41:23.976Z,67.10
2019-05-10T20:46:26.585Z,68.30
2019-05-10T20:51:29.279Z,67.90
2019-05-10T20:56:31.876Z,67.90
2019-05-10T21:01:34.732Z,67.50
2019-05-10T21:06:37.323Z,67.40
2019-05-10T21:11:39.907Z,67.10
2019-05-10T21:16:42.536Z,67.30
2019-05-10T21:21:45.187Z,67.40
2019-05-10T21:26:47.811Z,67.90
2019-05-10T21:31:50.414Z,68.00
2019-05-10T21:36:53.147Z,67.90
2019-05-10T21:41:55.689Z,67.90
2019-05-10T21:46:58.255Z,67.80
2019-05-10T21:52:00.821Z,68.00
2019-05-10T21:57:03.523Z,68.40
2019-05-10T22:02:06.198Z,67.90
2019-05-10T22:07:08.708Z,68.30
2019-05-10T22:12:11.324Z,67.70
2019-05-10T22:17:13.961Z,68.00
2019-05-10T22:22:16.510Z,68.00
2019-05-10T22:27:19.067Z,68.20
2019-05-10T22:32:21.683Z,68.00
2019-05-10T22:37:24.241Z,67.90
2019-05-10T22:42:26.797Z,68.10
2019-05-10T22:47:29.429Z,69.00
2019-05-10T22:52:32.049Z,68.70
2019-05-10T22:57:34.541Z,69.80
2019-05-10T23:02:37.083Z,69.90
2019-05-10T23:07:39.644Z,69.30
2019-05-10T23:12:42.245Z,69.10
2019-05-10T23:17:44.830Z,69.20
2019-05-10T23:22:47.320Z,69.20
2019-05-10T23:27:49.848Z,69.20
2019-05-10T23:32:52.456Z,69.10
2019-05-10T23:37:54.973Z,69.70
2019-05-10T23:42:57.617Z,69.70
2019-05-10T23:48:00.245Z,69.30
2019-05-10T23:53:02.811Z,69.70
2019-05-10T23:58:05.415Z,69.80
